Time;durP1;ratioP1;P1;durP2;ratioP2;P2;SDS_P1;SDS_P2;PMS_P1;PMS_P2;Temp;Humidity;BMP_temperature;BMP_pressure;BME280_temperature;BME280_humidity;BME280_pressure;Samples;Min_cycle;Max_cycle;Signal;HPM_P1;HPM_P2
2021/05/09 00:00:33;;;;;;;1.40;1.30;;;;;;;4.92;59.48;100848.34;5066635;28;20534;-69
2021/05/09 00:03:00;;;;;;;1.20;1.10;;;;;;;4.93;58.88;100844.75;5064086;28;20202;-69
2021/05/09 00:05:28;;;;;;;1.17;1.07;;;;;;;4.88;59.25;100842.25;5065517;28;20209;-69
2021/05/09 00:07:56;;;;;;;1.30;0.93;;;;;;;4.87;59.68;100837.00;5061191;28;20227;-69
2021/05/09 00:10:23;;;;;;;1.50;0.90;;;;;;;4.83;59.62;100838.06;5063654;28;20641;-69
2021/05/09 00:12:50;;;;;;;2.37;1.30;;;;;;;4.84;59.55;100839.78;5064243;28;20207;-69
2021/05/09 00:15:22;;;;;;;3.67;1.17;;;;;;;4.84;59.55;100845.09;5062312;28;20221;-69
2021/05/09 00:17:49;;;;;;;1.93;1.40;;;;;;;4.77;58.78;100838.31;5068117;28;20202;-69
2021/05/09 00:20:17;;;;;;;1.67;1.20;;;;;;;4.85;58.69;100852.16;5064523;28;20574;-69
2021/05/09 00:22:45;;;;;;;1.40;1.30;;;;;;;4.84;59.33;100853.94;5041653;28;20292;-69
2021/05/09 00:25:13;;;;;;;1.90;1.00;;;;;;;4.80;59.03;100852.34;5047887;28;20201;-69
2021/05/09 00:27:41;;;;;;;1.90;1.17;;;;;;;4.77;59.64;100846.31;5061762;28;20234;-69
2021/05/09 00:30:10;;;;;;;1.77;1.20;;;;;;;4.67;59.67;100841.38;5062072;28;20201;-69
2021/05/09 00:32:37;;;;;;;1.00;0.93;;;;;;;4.64;59.91;100838.84;5054711;28;20734;-69
2021/05/09 00:35:06;;;;;;;1.50;1.40;;;;;;;4.64;59.72;100841.50;5073027;28;20735;-69
2021/05/09 00:37:34;;;;;;;1.20;1.10;;;;;;;4.41;59.43;100804.38;5071525;28;20660;-69
2021/05/09 00:40:02;;;;;;;3.90;1.20;;;;;;;4.63;59.29;100834.47;5069458;28;20208;-69
2021/05/09 00:42:29;;;;;;;1.27;1.17;;;;;;;4.60;59.65;100833.72;5052986;28;20205;-69
2021/05/09 00:44:57;;;;;;;2.07;1.30;;;;;;;4.59;59.16;100837.28;5068468;28;20201;-69
2021/05/09 00:47:24;;;;;;;0.90;0.90;;;;;;;4.34;59.43;100800.25;5064499;28;20201;-69
2021/05/09 00:49:51;;;;;;;1.50;0.97;;;;;;;4.54;59.18;100837.47;5056501;28;20545;-69
2021/05/09 00:52:19;;;;;;;2.07;1.33;;;;;;;4.51;59.42;100837.63;5051889;28;20232;-69
2021/05/09 00:54:52;;;;;;;2.30;1.20;;;;;;;4.51;59.74;100834.97;5056558;28;20220;-69
2021/05/09 00:57:21;;;;;;;232.97;128.27;;;;;;;4.49;59.40;100834.16;5069829;28;20205;-69
2021/05/09 00:59:51;;;;;;;275.07;120.80;;;;;;;4.41;59.44;100825.63;5059639;28;20193;-69
2021/05/09 01:02:20;;;;;;;16.10;6.53;;;;;;;4.24;60.14;100817.47;5054682;28;20233;-69
2021/05/09 01:04:49;;;;;;;5.40;2.80;;;;;;;4.31;60.28;100827.81;5068956;28;20592;-69
2021/05/09 01:07:17;;;;;;;2.07;1.40;;;;;;;4.30;61.49;100838.50;5037984;28;20202;-69
2021/05/09 01:09:44;;;;;;;2.30;1.70;;;;;;;4.22;62.96;100828.16;5044937;28;20193;-69
2021/05/09 01:12:12;;;;;;;1.60;1.50;;;;;;;4.27;62.45;100838.59;5068638;28;20193;-69
2021/05/09 01:14:41;;;;;;;5.67;3.07;;;;;;;4.26;62.17;100836.88;5040873;28;20348;-69
2021/05/09 01:17:12;;;;;;;2.13;1.77;;;;;;;4.28;61.77;100837.69;5067394;28;20653;-69
2021/05/09 01:19:40;;;;;;;1.50;1.40;;;;;;;4.29;62.19;100836.78;5073536;28;20196;-69
2021/05/09 01:22:10;;;;;;;1.23;1.13;;;;;;;4.34;61.09;100834.78;5056357;28;20193;-70
2021/05/09 01:24:38;;;;;;;1.60;1.50;;;;;;;4.35;61.05;100836.53;5060939;28;20277;-70
2021/05/09 01:27:06;;;;;;;2.87;2.50;;;;;;;4.41;61.01;100828.28;5049342;28;20238;-69
2021/05/09 01:29:35;;;;;;;4.07;2.73;;;;;;;4.48;61.04;100816.47;5059260;28;20205;-69
2021/05/09 01:32:05;;;;;;;1.40;1.30;;;;;;;4.51;60.34;100826.97;5051180;28;20209;-69
2021/05/09 01:34:34;;;;;;;2.93;1.40;;;;;;;4.46;60.47;100825.44;5051180;28;20240;-69
2021/05/09 01:37:04;;;;;;;1.90;1.20;;;;;;;4.40;61.24;100823.91;5046617;28;20258;-69
2021/05/09 01:39:32;;;;;;;2.23;1.17;;;;;;;4.33;61.45;100828.63;5054304;28;20209;-68
2021/05/09 01:42:02;;;;;;;1.87;1.30;;;;;;;4.29;61.12;100844.75;5051107;28;20225;-69
2021/05/09 01:44:31;;;;;;;2.30;1.33;;;;;;;4.26;60.84;100831.56;5050763;28;20262;-69
2021/05/09 01:46:58;;;;;;;2.10;1.40;;;;;;;4.24;60.52;100822.78;5070719;28;20613;-69
2021/05/09 01:49:26;;;;;;;1.20;1.07;;;;;;;4.20;61.02;100818.53;5053681;28;20225;-69
2021/05/09 01:51:54;;;;;;;1.20;1.10;;;;;;;4.13;61.31;100815.25;5049791;28;20300;-69
2021/05/09 01:54:22;;;;;;;1.93;1.73;;;;;;;4.12;61.01;100807.34;5052166;28;20202;-69
2021/05/09 01:56:51;;;;;;;1.20;1.10;;;;;;;4.12;61.45;100804.69;5059896;28;20204;-69
2021/05/09 01:59:19;;;;;;;2.33;1.27;;;;;;;4.14;60.99;100805.50;5060734;28;20284;-68
2021/05/09 02:01:47;;;;;;;1.43;1.23;;;;;;;4.18;60.79;100807.09;5049796;28;20231;-69
2021/05/09 02:04:30;;;;;;;1.53;1.30;;;;;;;4.21;60.50;100807.84;5051135;28;20240;-69
2021/05/09 02:06:59;;;;;;;1.03;0.97;;;;;;;4.21;60.63;100802.53;5048258;28;20268;-69
2021/05/09 02:09:27;;;;;;;1.07;0.97;;;;;;;4.16;61.39;100800.97;5050943;28;20243;-69
2021/05/09 02:11:57;;;;;;;1.27;1.17;;;;;;;4.14;61.14;100805.50;5050573;28;20198;-69
2021/05/09 02:14:34;;;;;;;1.27;1.17;;;;;;;3.95;61.44;100770.81;5060670;28;20208;-69
2021/05/09 02:17:04;;;;;;;1.40;1.30;;;;;;;4.10;61.73;100795.91;5051109;28;20296;-69
2021/05/09 02:19:33;;;;;;;1.43;1.33;;;;;;;4.06;62.00;100797.84;5055960;28;20209;-69
2021/05/09 02:22:00;;;;;;;0.90;0.90;;;;;;;4.05;62.40;100801.41;5051971;28;20224;-69
2021/05/09 02:24:31;;;;;;;2.80;1.10;;;;;;;4.02;62.15;100802.41;5052696;28;20605;-69
2021/05/09 02:27:00;;;;;;;1.33;1.10;;;;;;;4.03;62.08;100797.97;5059687;28;20926;-69
2021/05/09 02:29:27;;;;;;;1.53;1.23;;;;;;;3.95;62.71;100790.28;5047551;28;20610;-69
2021/05/09 02:31:55;;;;;;;1.23;1.13;;;;;;;3.96;62.83;100789.34;5051162;28;20205;-69
2021/05/09 02:34:29;;;;;;;1.80;1.17;;;;;;;4.00;62.08;100798.94;5064192;28;20656;-69
2021/05/09 02:36:56;;;;;;;2.63;1.17;;;;;;;4.03;62.12;100795.31;5076198;28;20196;-69
2021/05/09 02:39:24;;;;;;;1.53;1.20;;;;;;;4.07;61.51;100788.06;5046887;28;20263;-69
2021/05/09 02:41:52;;;;;;;5.07;1.27;;;;;;;3.57;61.99;100714.78;5047882;28;20214;-69
2021/05/09 02:44:20;;;;;;;2.37;1.10;;;;;;;4.15;61.29;100799.25;5037612;28;20292;-69
2021/05/09 02:46:48;;;;;;;2.97;1.00;;;;;;;4.19;61.39;100791.09;5056097;28;20323;-69
2021/05/09 02:49:16;;;;;;;1.47;1.20;;;;;;;4.21;61.67;100802.53;5069913;28;20201;-68
2021/05/09 02:51:43;;;;;;;1.10;1.00;;;;;;;4.19;61.57;100792.88;5072312;28;20202;-69
2021/05/09 02:54:11;;;;;;;1.20;1.03;;;;;;;4.10;62.84;100793.25;5078454;28;20558;-69
2021/05/09 02:56:38;;;;;;;0.93;0.93;;;;;;;4.11;62.20;100789.69;5066341;28;20275;-69
2021/05/09 02:59:06;;;;;;;1.00;1.00;;;;;;;4.09;62.55;100780.91;5056148;28;20551;-69
2021/05/09 03:01:37;;;;;;;1.27;1.10;;;;;;;4.11;62.12;100784.38;5040080;28;20207;-70
2021/05/09 03:04:05;;;;;;;2.37;1.13;;;;;;;4.11;62.22;100779.03;5050981;28;20198;-69
2021/05/09 03:06:32;;;;;;;1.83;1.23;;;;;;;4.14;62.69;100778.91;5074237;28;20190;-69
2021/05/09 03:09:01;;;;;;;2.77;2.57;;;;;;;4.16;62.39;100790.34;5047720;28;20478;-68
2021/05/09 03:11:29;;;;;;;110.90;44.70;;;;;;;4.20;62.04;100783.97;5071990;28;20197;-68
2021/05/09 03:13:59;;;;;;;31.43;11.13;;;;;;;4.20;63.23;100779.53;5068361;28;20207;-68
2021/05/09 03:16:26;;;;;;;3.27;2.60;;;;;;;4.21;63.91;100777.72;5062940;28;20230;-68
2021/05/09 03:18:54;;;;;;;1.90;1.70;;;;;;;4.18;63.91;100773.41;5068784;28;20190;-69
2021/05/09 03:21:22;;;;;;;5.07;2.30;;;;;;;4.22;64.84;100776.81;5063862;28;20205;-68
2021/05/09 03:23:49;;;;;;;2.13;1.40;;;;;;;4.27;65.17;100764.19;5067963;28;20201;-69
2021/05/09 03:26:16;;;;;;;1.43;1.30;;;;;;;4.32;63.94;100759.56;5060093;28;20197;-69
2021/05/09 03:28:43;;;;;;;1.43;1.33;;;;;;;4.40;63.56;100775.19;5069913;28;20228;-68
2021/05/09 03:31:10;;;;;;;1.73;1.27;;;;;;;4.43;62.73;100765.28;5052079;28;20224;-68
2021/05/09 03:33:37;;;;;;;1.80;1.10;;;;;;;4.53;62.86;100777.25;5071887;28;20204;-69
2021/05/09 03:36:06;;;;;;;1.67;1.20;;;;;;;4.52;62.18;100770.22;5040251;28;20248;-68
2021/05/09 03:38:33;;;;;;;1.43;1.20;;;;;;;4.72;62.07;100781.81;5063483;28;20212;-68
2021/05/09 03:41:03;;;;;;;1.00;1.00;;;;;;;4.78;62.50;100777.06;5059243;28;20201;-69
2021/05/09 03:43:30;;;;;;;0.90;0.90;;;;;;;4.52;63.85;100738.31;5071582;28;20687;-68
2021/05/09 03:45:57;;;;;;;1.63;1.30;;;;;;;4.71;64.29;100769.44;5079885;28;20204;-68
2021/05/09 03:48:24;;;;;;;1.37;1.27;;;;;;;4.73;64.42;100788.84;5070554;28;20660;-68
2021/05/09 03:50:52;;;;;;;3.13;1.13;;;;;;;4.79;63.33;100785.91;5070265;28;20672;-69
2021/05/09 03:53:20;;;;;;;4.80;1.43;;;;;;;4.87;63.29;100778.47;5066705;28;20589;-69
2021/05/09 03:55:47;;;;;;;4.30;1.50;;;;;;;4.94;63.04;100770.16;5077103;28;20687;-69
2021/05/09 03:58:14;;;;;;;2.03;0.90;;;;;;;4.99;64.18;100770.81;5071725;28;20208;-70
2021/05/09 04:00:41;;;;;;;1.17;1.00;;;;;;;5.12;63.14;100765.81;5075945;28;20215;-70
2021/05/09 04:03:19;;;;;;;1.30;1.20;;;;;;;5.17;63.77;100758.47;5077348;28;20189;-70
2021/05/09 04:05:47;;;;;;;1.43;1.00;;;;;;;5.22;64.33;100760.94;5049287;28;20209;-70
2021/05/09 04:08:15;;;;;;;1.87;1.07;;;;;;;5.25;64.06;100761.69;5070970;28;20207;-70
2021/05/09 04:10:43;;;;;;;1.67;1.13;;;;;;;5.25;63.94;100759.00;5067237;28;20536;-69
2021/05/09 04:13:10;;;;;;;1.20;1.10;;;;;;;5.30;65.29;100759.66;5068004;28;20810;-69
2021/05/09 04:15:37;;;;;;;1.57;1.40;;;;;;;5.34;65.10;100760.38;5075392;28;20221;-68
2021/05/09 04:18:04;;;;;;;1.57;1.30;;;;;;;5.45;63.89;100759.88;5065762;28;20618;-69
2021/05/09 04:20:32;;;;;;;3.23;1.40;;;;;;;5.47;63.11;100744.69;5078678;28;20669;-69
2021/05/09 04:23:14;;;;;;;2.40;1.20;;;;;;;5.66;62.90;100756.22;5065613;28;20199;-68
2021/05/09 04:25:46;;;;;;;2.57;1.43;;;;;;;5.75;62.68;100755.78;5057763;28;20196;-69
2021/05/09 04:28:14;;;;;;;3.53;1.40;;;;;;;5.87;62.61;100759.66;5061146;28;20303;-69
2021/05/09 04:30:42;;;;;;;2.53;1.60;;;;;;;5.85;62.91;100741.09;5071968;28;20225;-69
2021/05/09 04:33:09;;;;;;;4.20;1.50;;;;;;;6.00;63.60;100762.63;5068183;28;20193;-69
2021/05/09 04:35:37;;;;;;;1.30;1.20;;;;;;;6.09;63.70;100764.81;5042030;28;20579;-69
2021/05/09 04:38:04;;;;;;;1.37;1.27;;;;;;;6.11;65.39;100757.63;5050140;28;20202;-69
2021/05/09 04:40:32;;;;;;;3.10;1.57;;;;;;;6.10;67.16;100761.22;5062839;28;20266;-69
2021/05/09 04:43:05;;;;;;;2.47;1.30;;;;;;;6.12;65.91;100738.00;5065290;28;20202;-69
2021/05/09 04:45:34;;;;;;;1.47;1.30;;;;;;;6.28;65.75;100755.00;5071911;28;20558;-69
2021/05/09 04:48:01;;;;;;;1.70;1.30;;;;;;;6.38;65.90;100750.91;5070026;28;20195;-69
2021/05/09 04:50:28;;;;;;;1.77;1.50;;;;;;;6.25;67.26;100736.47;5056127;28;20200;-68
2021/05/09 04:52:55;;;;;;;2.43;1.30;;;;;;;6.49;66.35;100755.72;5061788;28;20195;-69
2021/05/09 04:55:23;;;;;;;2.07;1.30;;;;;;;6.58;66.05;100747.25;5040993;28;20230;-69
2021/05/09 04:57:50;;;;;;;1.30;1.20;;;;;;;6.68;65.08;100747.63;5065273;28;20282;-69
2021/05/09 05:00:18;;;;;;;1.63;1.30;;;;;;;6.70;66.38;100745.75;5052322;28;20206;-69
2021/05/09 05:02:47;;;;;;;1.37;1.27;;;;;;;6.80;66.14;100737.19;5051180;28;20201;-69
2021/05/09 05:05:15;;;;;;;2.77;1.20;;;;;;;6.89;65.82;100743.84;5067040;28;20228;-69
2021/05/09 05:07:42;;;;;;;3.07;1.30;;;;;;;6.99;66.60;100746.88;5044666;28;20207;-69
2021/05/09 05:10:10;;;;;;;2.37;1.43;;;;;;;7.06;66.20;100742.97;5067988;28;20196;-69
2021/05/09 05:12:37;;;;;;;1999.90;999.90;;;;;;;7.12;64.57;100739.97;5070449;28;20692;-69
2021/05/09 05:15:05;;;;;;;324.67;112.73;;;;;;;7.30;66.57;100757.66;5069496;28;20652;-69
2021/05/09 05:17:32;;;;;;;18.17;9.53;;;;;;;7.38;66.68;100744.78;5069278;28;20211;-69
2021/05/09 05:20:00;;;;;;;16.07;6.67;;;;;;;7.52;67.50;100738.66;5070369;28;20578;-69
2021/05/09 05:22:28;;;;;;;11.20;7.27;;;;;;;7.68;67.37;100741.34;5073000;28;20205;-69
2021/05/09 05:24:56;;;;;;;14.73;3.77;;;;;;;7.85;67.52;100745.75;5075025;28;20228;-69
2021/05/09 05:27:23;;;;;;;1.70;1.60;;;;;;;8.02;65.91;100737.63;5043638;28;20237;-72
2021/05/09 05:29:50;;;;;;;348.97;216.50;;;;;;;7.95;67.55;100722.88;5066179;28;20691;-71
2021/05/09 05:32:17;;;;;;;5.87;5.20;;;;;;;8.02;67.20;100713.56;5061983;28;20216;-72
2021/05/09 05:34:44;;;;;;;22.27;14.57;;;;;;;8.28;66.46;100752.19;5063152;28;20198;-72
2021/05/09 05:37:12;;;;;;;19.63;10.23;;;;;;;8.28;65.55;100741.47;5061731;28;20244;-72
2021/05/09 05:39:39;;;;;;;1.63;1.30;;;;;;;8.33;66.00;100734.03;5052272;28;20217;-72
2021/05/09 05:42:07;;;;;;;5.83;1.97;;;;;;;8.39;64.38;100739.06;5054453;28;20305;-72
2021/05/09 05:44:34;;;;;;;4.40;1.23;;;;;;;8.36;64.07;100734.75;5059846;28;20610;-72
2021/05/09 05:47:01;;;;;;;2.30;1.00;;;;;;;8.39;63.94;100739.06;5064631;28;20222;-72
2021/05/09 05:49:28;;;;;;;3.17;1.40;;;;;;;8.42;63.76;100724.63;5060987;28;20551;-71
2021/05/09 05:51:55;;;;;;;2.03;1.10;;;;;;;8.31;63.63;100726.09;5056243;28;20211;-72
2021/05/09 05:54:25;;;;;;;8.40;1.20;;;;;;;8.19;63.26;100737.50;5059601;28;20675;-72
2021/05/09 05:56:52;;;;;;;5.17;1.10;;;;;;;8.27;64.31;100729.06;5067799;28;20574;-72
2021/05/09 05:59:19;;;;;;;1.60;1.20;;;;;;;8.43;63.95;100740.59;5063531;28;20257;-71
2021/05/09 06:01:46;;;;;;;1.30;0.90;;;;;;;8.51;63.30;100741.00;5059536;28;20246;-72
2021/05/09 06:04:13;;;;;;;3.60;1.20;;;;;;;8.48;63.65;100737.66;5061717;28;20201;-71
2021/05/09 06:06:41;;;;;;;1.23;0.97;;;;;;;8.38;63.84;100734.66;5061867;28;20208;-72
2021/05/09 06:09:08;;;;;;;2.80;1.20;;;;;;;8.19;63.90;100726.81;5063234;28;20537;-72
2021/05/09 06:11:35;;;;;;;1.57;1.30;;;;;;;8.24;64.63;100727.41;5063410;28;20203;-71
2021/05/09 06:14:03;;;;;;;1.40;1.20;;;;;;;8.25;64.63;100726.44;5062449;28;20205;-71
2021/05/09 06:16:49;;;;;;;1.73;1.10;;;;;;;8.30;65.14;100720.84;5062238;28;20347;-72
2021/05/09 06:19:17;;;;;;;3.07;1.50;;;;;;;8.35;64.33;100721.47;5063379;28;20205;-72
2021/05/09 06:21:44;;;;;;;3.20;1.17;;;;;;;8.28;65.06;100714.72;5060730;28;20201;-72
2021/05/09 06:24:11;;;;;;;1.80;1.13;;;;;;;8.00;64.87;100686.91;5062734;28;20246;-71
2021/05/09 06:26:39;;;;;;;1.43;1.20;;;;;;;8.22;65.19;100718.59;5060919;28;20554;-72
2021/05/09 06:29:06;;;;;;;1.57;1.00;;;;;;;8.21;65.00;100698.16;5042520;28;20230;-72
2021/05/09 06:31:33;;;;;;;1.97;1.17;;;;;;;8.19;65.35;100721.47;5051616;28;20212;-72
2021/05/09 06:34:02;;;;;;;1.87;1.20;;;;;;;8.26;65.55;100711.25;5058080;28;20212;-71
2021/05/09 06:36:30;;;;;;;1.53;1.10;;;;;;;8.20;66.19;100704.44;5059911;28;20274;-72
2021/05/09 06:38:57;;;;;;;4.23;1.17;;;;;;;8.15;65.63;100698.50;5061868;28;20207;-72
2021/05/09 06:41:25;;;;;;;2.50;1.20;;;;;;;8.22;65.92;100704.38;5066108;28;20751;-72
2021/05/09 06:43:55;;;;;;;5.50;1.40;;;;;;;8.29;66.09;100697.72;5055196;28;20251;-72
2021/05/09 06:46:22;;;;;;;3.50;1.27;;;;;;;8.17;66.05;100680.56;5064410;28;20554;-72
2021/05/09 06:48:50;;;;;;;2.63;1.33;;;;;;;8.34;65.55;100699.19;5046388;28;20206;-75
2021/05/09 06:51:19;;;;;;;1.07;0.93;;;;;;;8.32;65.51;100701.06;5062422;28;20729;-72
2021/05/09 06:53:46;;;;;;;6.80;1.50;;;;;;;8.37;65.46;100704.38;5067730;28;20280;-72
2021/05/09 06:56:13;;;;;;;1.77;1.00;;;;;;;8.47;64.18;100685.94;5066537;28;20205;-72
2021/05/09 06:58:41;;;;;;;2.50;0.93;;;;;;;8.56;64.21;100698.75;5050947;28;20739;-72
2021/05/09 07:01:12;;;;;;;8.40;1.30;;;;;;;8.54;61.99;100695.31;5065494;28;20688;-72
2021/05/09 07:03:39;;;;;;;1.37;1.17;;;;;;;8.70;62.14;100695.25;5059241;28;20658;-72
2021/05/09 07:06:07;;;;;;;1.53;1.10;;;;;;;8.78;62.46;100689.44;5064086;28;20183;-72
2021/05/09 07:08:34;;;;;;;5.53;1.33;;;;;;;8.73;61.71;100684.38;5061651;28;20204;-72
2021/05/09 07:11:02;;;;;;;2.33;1.10;;;;;;;8.81;62.15;100697.28;5057212;28;20202;-71
2021/05/09 07:13:29;;;;;;;2.90;1.30;;;;;;;8.84;60.90;100689.06;5063601;28;20208;-72
2021/05/09 07:15:58;;;;;;;1.47;1.03;;;;;;;8.94;61.52;100683.06;5064338;28;20291;-73
2021/05/09 07:18:27;;;;;;;1.13;1.10;;;;;;;8.92;60.81;100684.97;5057945;28;20666;-72
2021/05/09 07:20:56;;;;;;;2.07;1.20;;;;;;;9.07;60.63;100680.47;5059901;28;20288;-71
2021/05/09 07:23:24;;;;;;;0.97;0.87;;;;;;;9.31;59.51;100680.75;5062094;28;20671;-71
2021/05/09 07:25:51;;;;;;;1.53;0.97;;;;;;;9.30;58.86;100673.66;5053975;28;20220;-71
2021/05/09 07:28:20;;;;;;;1.87;1.00;;;;;;;9.33;59.45;100677.00;5062174;28;20238;-72
2021/05/09 07:30:48;;;;;;;1.07;0.87;;;;;;;9.30;59.20;100676.34;5048822;28;20205;-73
2021/05/09 07:33:15;;;;;;;4.90;1.20;;;;;;;9.46;58.42;100679.75;5063943;28;20789;-72
2021/05/09 07:35:44;;;;;;;4.70;1.10;;;;;;;9.41;57.85;100672.97;5065130;28;20235;-72
2021/05/09 07:38:13;;;;;;;3.00;1.10;;;;;;;9.47;58.75;100678.78;5061971;28;20221;-72
2021/05/09 07:40:44;;;;;;;1.30;1.07;;;;;;;9.53;57.83;100674.88;5061449;28;20290;-71
2021/05/09 07:43:16;;;;;;;5.47;1.00;;;;;;;9.43;57.95;100663.88;5058749;28;20960;-70
2021/05/09 07:45:45;;;;;;;6.33;1.20;;;;;;;9.63;57.39;100676.00;5054427;28;20315;-72
2021/05/09 07:48:12;;;;;;;1.13;0.87;;;;;;;9.62;56.87;100666.22;5057354;28;20199;-72
2021/05/09 07:50:41;;;;;;;1.43;0.90;;;;;;;9.65;57.42;100671.38;5046029;28;20201;-71
2021/05/09 07:53:10;;;;;;;1.10;1.00;;;;;;;9.76;56.71;100665.31;5055845;28;20897;-71
2021/05/09 07:55:38;;;;;;;5.70;1.27;;;;;;;9.66;57.08;100643.63;5056655;28;20243;-73
2021/05/09 07:58:14;;;;;;;1.43;1.10;;;;;;;9.98;57.07;100667.44;5057498;28;20418;-71
2021/05/09 08:00:42;;;;;;;3.57;1.20;;;;;;;9.82;56.60;100660.44;5060287;28;20647;-71
2021/05/09 08:03:09;;;;;;;1.23;1.10;;;;;;;9.72;57.71;100647.72;5055974;28;20201;-71
2021/05/09 08:05:36;;;;;;;1.83;1.10;;;;;;;9.90;57.45;100658.09;5053167;28;20191;-72
2021/05/09 08:08:04;;;;;;;1.57;1.00;;;;;;;9.80;57.56;100640.03;5058102;28;20221;-71
2021/05/09 08:10:35;;;;;;;3.43;1.30;;;;;;;10.05;57.51;100661.56;5055495;28;20197;-71
2021/05/09 08:13:04;;;;;;;11.30;1.43;;;;;;;10.10;57.57;100650.50;5060129;28;20571;-71
2021/05/09 08:15:31;;;;;;;1.13;1.03;;;;;;;10.27;58.05;100656.50;5059308;28;20202;-72
2021/05/09 08:18:02;;;;;;;2.77;1.30;;;;;;;10.31;57.58;100657.16;5056744;28;20194;-71
2021/05/09 08:20:30;;;;;;;0.83;0.83;;;;;;;10.37;57.40;100655.88;5061193;28;20200;-72
2021/05/09 08:22:57;;;;;;;1.73;1.13;;;;;;;10.31;57.18;100656.28;5054457;28;20701;-72
2021/05/09 08:25:24;;;;;;;2.67;1.10;;;;;;;10.30;57.85;100654.56;5062109;28;20197;-72
2021/05/09 08:27:52;;;;;;;1.60;1.20;;;;;;;10.37;57.01;100646.00;5064057;28;20244;-71
2021/05/09 08:30:22;;;;;;;1.60;1.00;;;;;;;10.27;58.27;100640.41;5064788;28;20205;-72
2021/05/09 08:32:50;;;;;;;3.83;1.40;;;;;;;10.37;57.85;100646.00;5060208;28;20695;-71
2021/05/09 08:35:17;;;;;;;1.20;1.10;;;;;;;10.36;57.85;100638.03;5056898;28;20209;-73
2021/05/09 08:37:44;;;;;;;4.60;1.07;;;;;;;10.38;58.62;100646.84;5056192;28;20599;-72
2021/05/09 08:40:13;;;;;;;5.20;1.53;;;;;;;10.32;58.91;100649.97;5059664;28;20206;-72
2021/05/09 08:42:41;;;;;;;6.03;1.43;;;;;;;10.51;58.68;100650.44;5064867;28;20608;-73
2021/05/09 08:45:11;;;;;;;4.20;1.40;;;;;;;10.15;60.66;100640.34;5056750;28;20200;-73
2021/05/09 08:47:41;;;;;;;1.00;1.00;;;;;;;10.34;59.08;100637.28;5059305;28;20201;-73
2021/05/09 08:50:10;;;;;;;1.40;1.30;;;;;;;10.25;60.96;100646.84;5057228;28;20197;-71
2021/05/09 08:52:39;;;;;;;2.07;1.20;;;;;;;10.04;62.30;100640.19;5063545;28;21732;-71
2021/05/09 08:55:12;;;;;;;2.57;1.37;;;;;;;9.92;62.56;100629.34;5065022;28;20216;-72
2021/05/09 08:57:41;;;;;;;3.87;1.43;;;;;;;9.67;63.60;100601.56;5063198;28;20201;-72
2021/05/09 09:00:11;;;;;;;3.33;1.30;;;;;;;9.73;65.25;100619.94;5066057;28;20666;-72
2021/05/09 09:02:58;;;;;;;2.07;1.70;;;;;;;9.79;64.70;100638.28;5063098;28;20232;-72
2021/05/09 09:05:38;;;;;;;1.53;1.23;;;;;;;9.42;65.58;100608.53;5055077;28;20680;-73
2021/05/09 09:08:06;;;;;;;1.33;1.20;;;;;;;9.65;64.34;100615.94;5065052;28;20228;-72
2021/05/09 09:10:39;;;;;;;2.03;1.30;;;;;;;9.75;65.63;100623.38;5062886;28;20200;-72
2021/05/09 09:13:20;;;;;;;1.10;1.10;;;;;;;9.01;66.23;100537.06;5061973;28;20210;-72
2021/05/09 09:15:57;;;;;;;3.87;1.80;;;;;;;9.32;67.54;100610.09;5064165;28;20201;-72
2021/05/09 09:18:33;;;;;;;5.43;1.70;;;;;;;9.32;67.09;100602.06;5061686;28;20660;-73
2021/05/09 09:21:20;;;;;;;5.23;1.47;;;;;;;9.32;67.78;100586.84;5065000;28;21009;-72
2021/05/09 09:23:48;;;;;;;6.43;1.50;;;;;;;9.20;69.72;100592.16;5059287;28;20205;-72
2021/05/09 09:26:30;;;;;;;1.63;1.30;;;;;;;9.23;69.27;100587.47;5063995;28;20611;-73
2021/05/09 09:28:59;;;;;;;4.60;1.60;;;;;;;9.21;69.95;100577.81;5065034;28;20238;-73
2021/05/09 09:31:41;;;;;;;1.53;1.37;;;;;;;8.97;70.21;100575.72;5059028;28;20232;-73
2021/05/09 09:34:09;;;;;;;2.67;1.70;;;;;;;9.00;70.42;100559.47;5061903;28;20255;-73
2021/05/09 09:36:37;;;;;;;4.50;1.83;;;;;;;9.15;70.59;100570.13;5061608;28;20706;-72
2021/05/09 09:39:05;;;;;;;1.70;1.43;;;;;;;9.07;71.30;100570.63;5052463;28;20216;-72
2021/05/09 09:41:32;;;;;;;5.70;1.80;;;;;;;9.07;71.25;100570.63;5068477;28;20941;-67
2021/05/09 09:44:03;;;;;;;2.93;1.63;;;;;;;8.82;72.74;100571.34;5060666;28;20716;-67
2021/05/09 09:46:32;;;;;;;1.93;1.40;;;;;;;8.70;74.17;100562.28;5048837;28;20207;-68
2021/05/09 09:49:03;;;;;;;2.00;1.80;;;;;;;8.60;73.92;100555.78;5064524;28;20190;-67
2021/05/09 09:51:48;;;;;;;3.63;1.60;;;;;;;8.61;75.08;100583.41;5046862;28;20207;-68
2021/05/09 09:54:34;;;;;;;3.03;1.80;;;;;;;8.54;75.98;100563.31;5046934;28;20209;-68
2021/05/09 09:57:01;;;;;;;2.17;1.60;;;;;;;8.59;75.63;100554.06;5043922;28;20220;-68
2021/05/09 09:59:28;;;;;;;3.77;1.60;;;;;;;8.53;75.57;100546.41;5056675;28;20218;-69
2021/05/09 10:01:57;;;;;;;2.17;1.77;;;;;;;8.42;75.83;100548.91;5059605;28;20254;-68
2021/05/09 10:04:25;;;;;;;4.37;1.80;;;;;;;8.27;76.79;100510.56;5062050;28;20207;-68
2021/05/09 10:06:52;;;;;;;2.60;2.00;;;;;;;8.40;76.35;100537.44;5060787;28;20645;-67
2021/05/09 10:09:24;;;;;;;4.47;1.97;;;;;;;8.40;76.29;100535.59;5044665;28;20221;-68
2021/05/09 10:11:54;;;;;;;9.97;2.30;;;;;;;8.48;76.75;100531.59;5062036;28;20201;-67
2021/05/09 10:14:21;;;;;;;3.90;1.90;;;;;;;8.48;77.12;100532.44;5058211;28;20208;-67
2021/05/09 10:16:51;;;;;;;2.50;1.73;;;;;;;8.56;76.11;100521.25;5059085;28;20227;-67
2021/05/09 10:19:22;;;;;;;4.80;2.03;;;;;;;8.57;76.91;100512.28;5058240;28;20651;-67
2021/05/09 10:21:52;;;;;;;4.67;2.20;;;;;;;8.48;77.19;100512.84;5059937;28;20211;-66
2021/05/09 10:24:21;;;;;;;4.60;1.90;;;;;;;8.37;77.89;100506.38;5062135;28;20211;-67
2021/05/09 10:26:51;;;;;;;2.93;2.13;;;;;;;8.52;78.63;100509.03;5061861;28;20204;-68
2021/05/09 10:29:58;;;;;;;3.90;1.80;;;;;;;8.58;77.34;100503.31;5062246;28;20558;-68
2021/05/09 10:32:49;;;;;;;5.00;2.33;;;;;;;8.56;77.54;100499.84;5058933;28;20207;-68
2021/05/09 10:35:17;;;;;;;2.77;2.30;;;;;;;8.56;77.95;100489.13;5055540;28;20206;-69
2021/05/09 10:38:02;;;;;;;6.03;2.47;;;;;;;8.48;77.68;100486.09;5062011;28;20206;-68
2021/05/09 10:40:31;;;;;;;2.93;2.40;;;;;;;8.60;77.84;100496.03;5060009;28;20628;-68
2021/05/09 10:43:37;;;;;;;2.70;2.07;;;;;;;8.71;78.35;100488.19;5057450;28;21374;-69
2021/05/09 10:46:06;;;;;;;7.17;2.33;;;;;;;8.73;77.20;100459.50;5059966;28;20637;-69
2021/05/09 10:48:34;;;;;;;6.43;2.50;;;;;;;8.82;78.34;100476.75;5059196;28;20196;-68
2021/05/09 10:51:29;;;;;;;4.40;2.60;;;;;;;8.80;79.09;100463.47;5058334;28;20208;-68
2021/05/09 10:54:20;;;;;;;6.13;2.63;;;;;;;8.76;78.26;100453.94;5056928;28;20284;-68
2021/05/09 10:56:47;;;;;;;3.87;2.80;;;;;;;8.69;78.62;100448.13;5059751;28;20233;-68
2021/05/09 10:59:15;;;;;;;5.17;2.80;;;;;;;8.76;77.43;100443.22;5043743;28;20226;-68
2021/05/09 11:01:42;;;;;;;5.40;2.80;;;;;;;8.80;77.62;100444.72;5049078;28;20219;-68
2021/05/09 11:04:11;;;;;;;4.57;2.37;;;;;;;8.77;78.29;100438.72;5056917;28;20266;-75
2021/05/09 11:06:49;;;;;;;3.50;2.60;;;;;;;8.58;77.30;100393.59;5065676;28;20193;-73
2021/05/09 11:09:34;;;;;;;3.83;2.60;;;;;;;8.87;77.58;100438.00;5067316;28;20653;-73
2021/05/09 11:12:07;;;;;;;6.43;2.83;;;;;;;8.80;78.05;100459.94;5070884;28;20194;-73
2021/05/09 11:14:38;;;;;;;6.03;3.17;;;;;;;8.72;78.20;100439.03;5053390;28;20581;-73
2021/05/09 11:17:11;;;;;;;5.23;2.90;;;;;;;8.80;78.33;100417.97;5067545;28;20304;-73
2021/05/09 11:19:41;;;;;;;8.13;3.17;;;;;;;8.87;78.03;100413.06;5063094;28;20656;-75
2021/05/09 11:22:09;;;;;;;4.03;3.00;;;;;;;8.79;77.90;100432.31;5061142;28;20208;-74
2021/05/09 11:24:39;;;;;;;4.93;2.83;;;;;;;8.69;78.73;100417.81;5070907;28;20780;-73
2021/05/09 11:27:12;;;;;;;4.73;3.00;;;;;;;8.77;77.59;100412.81;5066614;28;20295;-73
2021/05/09 11:29:41;;;;;;;4.93;2.43;;;;;;;8.76;78.43;100400.38;5069393;28;20687;-73
2021/05/09 11:32:11;;;;;;;5.40;3.40;;;;;;;8.76;78.08;100405.75;5079031;28;20201;-72
2021/05/09 11:34:49;;;;;;;4.77;2.90;;;;;;;8.70;79.68;100415.03;5069668;28;20293;-72
2021/05/09 11:37:17;;;;;;;7.53;3.40;;;;;;;8.63;79.06;100404.84;5056165;28;20280;-73
2021/05/09 11:39:45;;;;;;;5.63;3.37;;;;;;;8.34;79.02;100370.13;5060400;28;20266;-72
2021/05/09 11:42:15;;;;;;;8.13;3.13;;;;;;;8.51;79.34;100384.22;5058859;28;20197;-71